createdAt,value
2022-08-19T00:00:03.301Z,90.33
2022-08-19T00:00:13.428Z,90.33
2022-08-19T00:00:23.610Z,90.44
2022-08-19T00:00:33.570Z,90.44
2022-08-19T00:00:43.706Z,90.33
2022-08-19T00:00:53.830Z,90.33
2022-08-19T00:01:03.960Z,90.33
2022-08-19T00:01:14.081Z,90.33
2022-08-19T00:01:30.279Z,90.33
2022-08-19T00:01:37.742Z,90.33
2022-08-19T00:01:45.317Z,90.33
2022-08-19T00:01:56.261Z,90.37
2022-08-19T00:02:06.380Z,90.33
2022-08-19T00:02:16.501Z,90.33
2022-08-19T00:02:26.665Z,90.33
2022-08-19T00:02:36.763Z,90.37
2022-08-19T00:02:50.145Z,90.44
2022-08-19T00:02:57.029Z,90.48
2022-08-19T00:03:07.169Z,90.44
2022-08-19T00:03:17.298Z,90.44
2022-08-19T00:03:27.423Z,90.44
2022-08-19T00:03:37.550Z,90.44
2022-08-19T00:03:47.691Z,90.44
2022-08-19T00:03:57.830Z,90.58
2022-08-19T00:04:07.970Z,90.58
2022-08-19T00:04:18.149Z,90.53
2022-08-19T00:04:28.166Z,90.63
2022-08-19T00:04:38.172Z,90.67
2022-08-19T00:04:48.357Z,90.63
2022-08-19T00:04:58.374Z,90.63
2022-08-19T00:05:08.369Z,90.63
2022-08-19T00:05:18.500Z,90.58
2022-08-19T00:05:28.651Z,90.53
2022-08-19T00:05:38.800Z,90.58
2022-08-19T00:05:48.968Z,90.58
2022-08-19T00:05:59.111Z,90.53
2022-08-19T00:06:09.241Z,90.58
2022-08-19T00:06:19.435Z,90.63
2022-08-19T00:06:29.478Z,90.67
2022-08-19T00:06:39.483Z,90.63
2022-08-19T00:06:49.610Z,90.63
2022-08-19T00:06:59.750Z,90.67
2022-08-19T00:07:09.904Z,90.53
2022-08-19T00:07:19.922Z,90.44
2022-08-19T00:07:30.052Z,90.33
2022-08-19T00:07:40.237Z,90.37
2022-08-19T00:07:50.191Z,90.37
2022-08-19T00:08:00.330Z,90.37
2022-08-19T00:08:10.469Z,90.37
2022-08-19T00:08:20.630Z,90.48
2022-08-19T00:08:30.759Z,90.48
2022-08-19T00:08:42.802Z,90.58
2022-08-19T00:08:51.201Z,90.58
2022-08-19T00:09:01.225Z,90.37
2022-08-19T00:09:11.370Z,90.37
2022-08-19T00:09:21.512Z,90.28
2022-08-19T00:09:31.652Z,90.28
2022-08-19T00:09:41.788Z,90.28
2022-08-19T00:09:51.921Z,90.28
2022-08-19T00:10:02.170Z,90.28
2022-08-19T00:10:12.321Z,90.28
2022-08-19T00:10:22.452Z,90.17
2022-08-19T00:10:32.591Z,90.17
2022-08-19T00:10:42.732Z,90.17
2022-08-19T00:10:52.861Z,90.17
2022-08-19T00:11:03.008Z,90.17
2022-08-19T00:11:18.750Z,90.28
2022-08-19T00:11:25.800Z,90.37
2022-08-19T00:11:34.349Z,90.37
2022-08-19T00:11:44.341Z,90.37
2022-08-19T00:11:54.490Z,90.37
2022-08-19T00:12:04.628Z,90.37
2022-08-19T00:12:14.771Z,90.37
2022-08-19T00:12:24.919Z,90.37
2022-08-19T00:12:35.054Z,90.37
2022-08-19T00:12:47.105Z,90.48
2022-08-19T00:12:56.136Z,90.48
2022-08-19T00:13:06.287Z,90.48
2022-08-19T00:13:16.401Z,90.48
2022-08-19T00:13:26.551Z,90.48
2022-08-19T00:13:36.661Z,90.58
2022-08-19T00:13:46.872Z,90.58
2022-08-19T00:13:56.822Z,90.58
2022-08-19T00:14:06.950Z,90.58
2022-08-19T00:14:17.109Z,90.48
2022-08-19T00:14:27.276Z,90.48
2022-08-19T00:14:37.399Z,90.48
2022-08-19T00:14:47.518Z,90.58
2022-08-19T00:14:57.640Z,90.58
2022-08-19T00:15:07.780Z,90.67
2022-08-19T00:15:18.061Z,90.67
2022-08-19T00:15:28.189Z,90.67
2022-08-19T00:15:38.365Z,90.67
2022-08-19T00:15:48.362Z,90.58
2022-08-19T00:15:58.498Z,90.58
2022-08-19T00:16:08.613Z,90.48
2022-08-19T00:16:18.752Z,90.48
2022-08-19T00:16:28.932Z,90.48
2022-08-19T00:16:39.060Z,90.58
2022-08-19T00:16:49.172Z,90.48
2022-08-19T00:16:59.318Z,90.48
2022-08-19T00:17:09.490Z,90.37
2022-08-19T00:17:19.622Z,90.37
2022-08-19T00:17:29.792Z,90.48
2022-08-19T00:17:41.907Z,90.48
2022-08-19T00:17:49.994Z,90.58
2022-08-19T00:18:00.142Z,90.67
2022-08-19T00:18:10.322Z,90.67
2022-08-19T00:18:20.320Z,90.78
2022-08-19T00:18:30.460Z,90.78
2022-08-19T00:18:40.581Z,90.78
2022-08-19T00:18:50.713Z,90.78
2022-08-19T00:19:00.842Z,90.67
2022-08-19T00:19:10.971Z,90.78
2022-08-19T00:19:21.001Z,90.78
2022-08-19T00:19:31.161Z,90.78
2022-08-19T00:19:41.312Z,90.78
2022-08-19T00:19:51.465Z,90.78
2022-08-19T00:20:01.616Z,90.78
2022-08-19T00:20:11.750Z,90.78
2022-08-19T00:20:21.901Z,90.78
2022-08-19T00:20:32.041Z,90.78
2022-08-19T00:20:42.191Z,90.78
2022-08-19T00:20:52.341Z,90.78
2022-08-19T00:21:02.482Z,90.88
2022-08-19T00:21:12.622Z,90.88
2022-08-19T00:21:22.852Z,90.88
2022-08-19T00:21:32.829Z,90.88
2022-08-19T00:21:42.972Z,90.88
2022-08-19T00:21:53.122Z,90.88
2022-08-19T00:22:03.272Z,90.88
2022-08-19T00:22:13.402Z,90.88
2022-08-19T00:22:23.471Z,90.98
2022-08-19T00:22:33.452Z,90.98
2022-08-19T00:22:43.591Z,90.98
2022-08-19T00:22:53.978Z,90.98
2022-08-19T00:23:03.861Z,90.98
2022-08-19T00:23:13.992Z,90.98
2022-08-19T00:23:24.140Z,90.98
2022-08-19T00:23:34.297Z,90.98
2022-08-19T00:23:44.441Z,90.98
2022-08-19T00:23:54.594Z,91.08
2022-08-19T00:24:04.749Z,91.17
2022-08-19T00:24:14.891Z,91.17
2022-08-19T00:24:24.922Z,91.17
2022-08-19T00:24:35.071Z,91.17
2022-08-19T00:24:50.765Z,91.28
2022-08-19T00:24:55.649Z,91.28
2022-08-19T00:25:05.790Z,91.28
2022-08-19T00:25:15.961Z,91.28
2022-08-19T00:25:30.193Z,91.24
2022-08-19T00:25:36.162Z,91.33
2022-08-19T00:25:48.791Z,91.33
2022-08-19T00:25:56.243Z,91.33
2022-08-19T00:26:06.402Z,91.44
2022-08-19T00:26:16.536Z,91.44
2022-08-19T00:26:26.698Z,91.44
2022-08-19T00:26:36.860Z,91.44
2022-08-19T00:26:46.994Z,91.44
2022-08-19T00:26:57.132Z,91.44
2022-08-19T00:27:25.279Z,91.44
2022-08-19T00:27:26.088Z,91.44
2022-08-19T00:27:29.221Z,91.44
2022-08-19T00:27:39.241Z,91.44
2022-08-19T00:27:49.394Z,91.44
2022-08-19T00:27:59.522Z,91.44
2022-08-19T00:28:09.663Z,91.44
2022-08-19T00:28:19.802Z,91.44
2022-08-19T00:28:29.940Z,91.44
2022-08-19T00:28:40.082Z,91.44
2022-08-19T00:28:50.201Z,91.44
2022-08-19T00:29:00.350Z,91.44
2022-08-19T00:29:10.473Z,91.44
2022-08-19T00:29:20.614Z,91.44
2022-08-19T00:29:30.752Z,91.33
2022-08-19T00:29:40.882Z,91.33
2022-08-19T00:29:52.247Z,91.24
2022-08-19T00:30:01.092Z,91.24
2022-08-19T00:30:11.222Z,91.24
2022-08-19T00:30:21.390Z,91.24
2022-08-19T00:30:31.520Z,91.24
2022-08-19T00:30:41.642Z,91.24
2022-08-19T00:30:51.793Z,91.24
2022-08-19T00:31:01.823Z,91.24
2022-08-19T00:31:11.960Z,91.13
2022-08-19T00:31:22.092Z,91.13
2022-08-19T00:31:32.131Z,91.13
2022-08-19T00:31:42.272Z,91.13
2022-08-19T00:31:52.402Z,91.13
2022-08-19T00:32:02.541Z,91.13
2022-08-19T00:32:12.853Z,91.13
2022-08-19T00:32:23.912Z,91.13
2022-08-19T00:32:33.431Z,91.03
2022-08-19T00:32:43.485Z,90.94
2022-08-19T00:32:53.791Z,90.83
2022-08-19T00:33:03.721Z,90.73
2022-08-19T00:33:13.772Z,90.63
2022-08-19T00:33:23.912Z,90.53
2022-08-19T00:33:34.065Z,90.53
2022-08-19T00:33:44.214Z,90.53
2022-08-19T00:33:54.345Z,90.53
2022-08-19T00:34:04.492Z,90.53
2022-08-19T00:34:14.679Z,90.53
2022-08-19T00:34:24.662Z,90.53
2022-08-19T00:34:34.792Z,90.53
2022-08-19T00:34:44.923Z,90.53
2022-08-19T00:34:55.067Z,90.53
2022-08-19T00:35:05.212Z,90.53
2022-08-19T00:35:15.214Z,90.53
2022-08-19T00:35:25.362Z,90.63
2022-08-19T00:35:35.501Z,90.63
2022-08-19T00:35:45.512Z,90.73
2022-08-19T00:35:56.143Z,90.73
2022-08-19T00:36:05.742Z,90.73
2022-08-19T00:36:15.760Z,90.83
2022-08-19T00:36:25.892Z,90.83
2022-08-19T00:36:36.042Z,90.94
2022-08-19T00:36:46.189Z,90.94
2022-08-19T00:36:56.340Z,90.94
2022-08-19T00:37:06.469Z,90.94
2022-08-19T00:37:16.492Z,91.08
2022-08-19T00:37:26.631Z,91.03
2022-08-19T00:37:36.751Z,91.03
2022-08-19T00:37:46.885Z,91.03
2022-08-19T00:37:57.011Z,91.08
2022-08-19T00:38:07.142Z,90.98
2022-08-19T00:38:17.312Z,90.98
2022-08-19T00:38:37.118Z,90.98
2022-08-19T00:38:39.262Z,91.08
2022-08-19T00:38:49.371Z,91.08
2022-08-19T00:38:59.504Z,91.08
2022-08-19T00:39:09.635Z,91.17
2022-08-19T00:39:19.784Z,91.17
2022-08-19T00:39:29.956Z,91.17
2022-08-19T00:39:40.089Z,91.17
2022-08-19T00:39:50.277Z,91.17
2022-08-19T00:40:00.377Z,91.17
2022-08-19T00:40:10.403Z,91.17
2022-08-19T00:40:20.401Z,91.17
2022-08-19T00:40:30.542Z,91.17
2022-08-19T00:40:40.680Z,91.17
2022-08-19T00:40:50.942Z,91.17
2022-08-19T00:41:00.882Z,91.17
2022-08-19T00:41:11.025Z,91.17
2022-08-19T00:41:21.081Z,91.17
2022-08-19T00:41:31.237Z,91.17
2022-08-19T00:41:41.394Z,91.17
2022-08-19T00:41:51.391Z,91.28
2022-08-19T00:42:01.532Z,91.28
2022-08-19T00:42:11.677Z,91.28
2022-08-19T00:42:21.812Z,91.28
2022-08-19T00:42:31.952Z,91.28
2022-08-19T00:42:42.110Z,91.28
2022-08-19T00:42:52.209Z,91.38
2022-08-19T00:43:02.262Z,91.38
2022-08-19T00:43:12.423Z,91.48
2022-08-19T00:43:22.576Z,91.48
2022-08-19T00:43:32.726Z,91.48
2022-08-19T00:43:42.853Z,91.48
2022-08-19T00:43:52.994Z,91.48
2022-08-19T00:44:03.122Z,91.58
2022-08-19T00:44:13.283Z,91.58
2022-08-19T00:44:26.639Z,91.58
2022-08-19T00:44:33.583Z,91.58
2022-08-19T00:44:43.721Z,91.58
2022-08-19T00:44:53.842Z,91.48
2022-08-19T00:45:03.984Z,91.58
2022-08-19T00:45:14.112Z,91.48
2022-08-19T00:45:24.252Z,91.58
2022-08-19T00:45:36.534Z,91.58
2022-08-19T00:45:44.423Z,91.58
2022-08-19T00:45:54.561Z,91.67
2022-08-19T00:46:04.712Z,91.67
2022-08-19T00:46:14.851Z,91.67
2022-08-19T00:46:25.002Z,91.67
2022-08-19T00:46:35.132Z,91.67
2022-08-19T00:46:45.280Z,91.78
2022-08-19T00:46:58.516Z,91.78
2022-08-19T00:47:06.272Z,91.88
2022-08-19T00:47:17.251Z,91.88
2022-08-19T00:47:27.281Z,91.88
2022-08-19T00:47:37.329Z,91.78
2022-08-19T00:47:47.422Z,91.78
2022-08-19T00:47:57.554Z,91.67
2022-08-19T00:48:14.734Z,91.67
2022-08-19T00:48:18.663Z,91.67
2022-08-19T00:48:28.792Z,91.67
2022-08-19T00:48:38.948Z,91.58
2022-08-19T00:48:49.100Z,91.58
2022-08-19T00:48:59.252Z,91.58
2022-08-19T00:49:09.402Z,91.58
2022-08-19T00:49:19.552Z,91.58
2022-08-19T00:49:29.703Z,91.58
2022-08-19T00:49:39.852Z,91.58
2022-08-19T00:49:49.992Z,91.58
2022-08-19T00:50:00.154Z,91.58
2022-08-19T00:50:10.273Z,91.67
2022-08-19T00:50:20.422Z,91.67
2022-08-19T00:50:30.562Z,91.67
2022-08-19T00:50:40.717Z,91.78
2022-08-19T00:50:52.466Z,91.78
2022-08-19T00:51:01.937Z,91.78
2022-08-19T00:51:12.101Z,91.78
2022-08-19T00:51:22.242Z,91.78
2022-08-19T00:51:32.376Z,91.88
2022-08-19T00:51:42.516Z,91.88
2022-08-19T00:51:52.662Z,91.78
2022-08-19T00:52:02.813Z,91.78
2022-08-19T00:52:12.965Z,91.88
2022-08-19T00:52:23.102Z,91.88
2022-08-19T00:52:33.242Z,91.88
2022-08-19T00:52:43.384Z,91.88
2022-08-19T00:52:53.778Z,91.98
2022-08-19T00:53:03.653Z,91.98
2022-08-19T00:53:13.784Z,91.98
2022-08-19T00:53:23.932Z,92.08
2022-08-19T00:53:34.090Z,92.18
2022-08-19T00:53:44.232Z,92.18
2022-08-19T00:53:54.382Z,92.28
2022-08-19T00:54:04.520Z,92.28
2022-08-19T00:54:14.696Z,92.38
2022-08-19T00:54:28.285Z,92.38
2022-08-19T00:54:35.640Z,92.38
2022-08-19T00:54:48.657Z,92.38
2022-08-19T00:54:55.932Z,92.38
2022-08-19T00:55:05.970Z,92.38
2022-08-19T00:55:16.495Z,92.28
2022-08-19T00:55:26.205Z,92.28
2022-08-19T00:55:36.342Z,92.28
2022-08-19T00:55:46.483Z,92.28
2022-08-19T00:55:56.582Z,92.28
2022-08-19T00:56:06.722Z,92.28
2022-08-19T00:56:16.883Z,92.24
2022-08-19T00:56:26.864Z,92.24
2022-08-19T00:56:37.012Z,92.24
2022-08-19T00:56:47.163Z,92.24
2022-08-19T00:56:57.311Z,92.13
2022-08-19T00:57:07.462Z,92.24
2022-08-19T00:57:17.613Z,92.24
2022-08-19T00:57:27.752Z,92.24
2022-08-19T00:57:37.892Z,92.24
2022-08-19T00:57:48.051Z,92.24
2022-08-19T00:57:58.194Z,92.24
2022-08-19T00:58:08.334Z,92.24
2022-08-19T00:58:18.484Z,92.13
2022-08-19T00:58:28.642Z,92.13
2022-08-19T00:58:38.782Z,92.13
2022-08-19T00:58:48.922Z,92.03
2022-08-19T00:58:59.056Z,92.03
2022-08-19T00:59:09.193Z,92.03
2022-08-19T00:59:56.168Z,92.03
2022-08-19T00:59:56.390Z,92.03
2022-08-19T01:00:00.356Z,92.03
2022-08-19T01:00:02.012Z,92.03
2022-08-19T01:00:03.592Z,92.03
2022-08-19T01:00:13.413Z,92.03
2022-08-19T01:00:23.442Z,92.03
2022-08-19T01:00:33.591Z,92.03
2022-08-19T01:00:43.743Z,91.93
2022-08-19T01:00:53.888Z,92.03
2022-08-19T01:01:04.035Z,92.03
2022-08-19T01:01:14.231Z,91.93
2022-08-19T01:01:24.271Z,92.03
2022-08-19T01:01:34.309Z,92.03
2022-08-19T01:01:44.421Z,92.03
2022-08-19T01:01:54.404Z,91.93
2022-08-19T01:02:04.383Z,91.93
2022-08-19T01:02:14.532Z,91.93
2022-08-19T01:02:24.682Z,91.93
2022-08-19T01:02:34.844Z,91.93
2022-08-19T01:02:44.983Z,91.93
2022-08-19T01:02:55.219Z,91.93
2022-08-19T01:03:05.223Z,91.93
2022-08-19T01:03:15.371Z,91.93
2022-08-19T01:03:25.510Z,91.93
2022-08-19T01:03:56.535Z,91.93
2022-08-19T01:03:58.199Z,91.93
2022-08-19T01:03:58.836Z,91.93
2022-08-19T01:04:07.634Z,91.93
2022-08-19T01:04:17.793Z,91.93
2022-08-19T01:04:27.942Z,91.93
2022-08-19T01:04:37.954Z,91.83
2022-08-19T01:04:48.094Z,91.83
2022-08-19T01:04:58.221Z,91.74
2022-08-19T01:05:08.362Z,91.74
2022-08-19T01:05:18.492Z,91.74
2022-08-19T01:05:28.672Z,91.74
2022-08-19T01:05:38.806Z,91.74
2022-08-19T01:05:49.058Z,91.74
2022-08-19T01:05:59.024Z,91.74
2022-08-19T01:06:09.023Z,91.69
2022-08-19T01:06:19.917Z,91.59
2022-08-19T01:06:29.320Z,91.69
2022-08-19T01:06:39.483Z,91.69
2022-08-19T01:06:49.653Z,91.59
2022-08-19T01:06:59.621Z,91.59
2022-08-19T01:07:09.633Z,91.59
2022-08-19T01:07:19.866Z,91.49
2022-08-19T01:07:37.635Z,91.49
2022-08-19T01:07:40.824Z,91.39
2022-08-19T01:07:50.973Z,91.19
2022-08-19T01:08:01.125Z,91.19
2022-08-19T01:08:11.243Z,91.09
2022-08-19T01:08:21.423Z,90.99
2022-08-19T01:08:31.581Z,90.99
2022-08-19T01:08:41.705Z,90.99
2022-08-19T01:08:51.833Z,90.99
2022-08-19T01:09:01.973Z,90.99
2022-08-19T01:09:12.104Z,90.99
2022-08-19T01:09:22.234Z,90.89
2022-08-19T01:09:32.353Z,90.79
2022-08-19T01:09:42.475Z,90.79
2022-08-19T01:09:52.614Z,90.79
2022-08-19T01:10:02.744Z,90.79
2022-08-19T01:10:12.902Z,90.69
2022-08-19T01:10:23.016Z,90.69
2022-08-19T01:10:36.637Z,90.69
2022-08-19T01:10:43.270Z,90.69
2022-08-19T01:10:53.422Z,90.69
2022-08-19T01:11:03.554Z,90.69
2022-08-19T01:11:13.723Z,90.59
2022-08-19T01:11:23.884Z,90.59
2022-08-19T01:11:34.034Z,90.59
2022-08-19T01:11:44.163Z,90.59
2022-08-19T01:11:54.323Z,90.59
2022-08-19T01:12:04.475Z,90.49
2022-08-19T01:12:14.615Z,90.49
2022-08-19T01:12:24.785Z,90.39
2022-08-19T01:12:34.942Z,90.29
2022-08-19T01:12:45.250Z,90.29
2022-08-19T01:12:55.250Z,90.29
2022-08-19T01:13:05.389Z,90.29
2022-08-19T01:13:15.553Z,90.29
2022-08-19T01:13:25.692Z,90.29
2022-08-19T01:13:49.570Z,90.19
2022-08-19T01:13:50.084Z,90.29
2022-08-19T01:13:56.843Z,90.29
2022-08-19T01:14:06.840Z,90.29
2022-08-19T01:14:17.010Z,90.29
2022-08-19T01:14:27.193Z,90.29
2022-08-19T01:14:37.862Z,90.29
2022-08-19T01:14:47.302Z,90.29
2022-08-19T01:14:57.453Z,90.29
2022-08-19T01:15:07.472Z,90.29
2022-08-19T01:15:17.614Z,90.29
2022-08-19T01:15:27.734Z,90.29
2022-08-19T01:15:37.797Z,90.29
2022-08-19T01:15:47.988Z,90.29
2022-08-19T01:15:58.144Z,90.29
2022-08-19T01:16:08.333Z,90.19
2022-08-19T01:16:18.413Z,90.19
2022-08-19T01:16:28.453Z,90.19
2022-08-19T01:16:38.504Z,90.19
2022-08-19T01:16:48.674Z,90.19
2022-08-19T01:16:58.663Z,90.19
2022-08-19T01:17:08.743Z,90.19
2022-08-19T01:17:18.730Z,90.29
2022-08-19T01:17:29.052Z,90.29
2022-08-19T01:17:38.963Z,90.29
2022-08-19T01:17:49.041Z,90.29
2022-08-19T01:17:59.315Z,90.29
2022-08-19T01:18:09.270Z,90.19
2022-08-19T01:18:19.234Z,90.09
2022-08-19T01:18:29.383Z,90.09
2022-08-19T01:18:39.525Z,89.99
2022-08-19T01:18:49.653Z,89.99
2022-08-19T01:18:59.844Z,89.99
2022-08-19T01:19:09.835Z,89.99
2022-08-19T01:19:19.971Z,89.99
2022-08-19T01:19:30.105Z,89.89
2022-08-19T01:19:44.285Z,89.89
2022-08-19T01:19:50.492Z,89.89
2022-08-19T01:20:00.624Z,89.79
2022-08-19T01:20:10.763Z,89.79
2022-08-19T01:20:20.914Z,89.79
2022-08-19T01:20:31.062Z,89.69
2022-08-19T01:20:41.193Z,89.69
2022-08-19T01:20:51.352Z,89.79
2022-08-19T01:21:01.503Z,89.79
2022-08-19T01:21:11.654Z,89.79
2022-08-19T01:21:21.771Z,89.79
2022-08-19T01:21:31.913Z,89.79
2022-08-19T01:21:42.071Z,89.79
2022-08-19T01:21:52.223Z,89.69
2022-08-19T01:22:13.112Z,89.69
2022-08-19T01:22:14.492Z,89.69
2022-08-19T01:22:30.207Z,89.69
2022-08-19T01:22:34.362Z,89.69
2022-08-19T01:22:44.463Z,89.69
2022-08-19T01:22:54.722Z,89.69
2022-08-19T01:23:04.714Z,89.69
2022-08-19T01:23:14.823Z,89.69
2022-08-19T01:23:24.942Z,89.79
2022-08-19T01:23:35.024Z,89.79
2022-08-19T01:23:45.134Z,89.79
2022-08-19T01:23:55.251Z,89.79
2022-08-19T01:24:05.393Z,89.79
2022-08-19T01:24:15.492Z,89.89
2022-08-19T01:24:25.594Z,89.79
2022-08-19T01:24:35.734Z,89.79
2022-08-19T01:24:49.774Z,89.89
2022-08-19T01:24:56.773Z,89.89
2022-08-19T01:25:14.704Z,89.89
2022-08-19T01:25:17.890Z,89.89
2022-08-19T01:25:27.874Z,89.89
2022-08-19T01:25:38.013Z,89.89
2022-08-19T01:25:48.163Z,89.79
2022-08-19T01:25:58.322Z,89.79
2022-08-19T01:26:08.434Z,89.79
2022-08-19T01:26:18.435Z,89.79
2022-08-19T01:26:28.513Z,89.89
2022-08-19T01:26:38.583Z,89.89
2022-08-19T01:26:48.654Z,89.89
2022-08-19T01:26:58.772Z,90.03
2022-08-19T01:27:10.941Z,90.03
2022-08-19T01:27:19.201Z,90.13
2022-08-19T01:27:29.564Z,90.13
2022-08-19T01:27:43.206Z,90.13
2022-08-19T01:27:49.993Z,90.23
2022-08-19T01:28:03.050Z,90.23
2022-08-19T01:28:11.321Z,90.23
2022-08-19T01:28:33.798Z,90.23
2022-08-19T01:28:39.056Z,90.23
2022-08-19T01:28:43.024Z,90.23
2022-08-19T01:28:53.160Z,90.23
2022-08-19T01:29:05.313Z,90.23
2022-08-19T01:29:13.553Z,90.23
2022-08-19T01:29:23.644Z,90.33
2022-08-19T01:29:33.793Z,90.33
2022-08-19T01:29:43.945Z,90.33
2022-08-19T01:29:53.984Z,90.33
2022-08-19T01:30:04.101Z,90.33
2022-08-19T01:30:14.154Z,90.44
2022-08-19T01:30:24.277Z,90.44
2022-08-19T01:30:34.394Z,90.44
2022-08-19T01:30:44.602Z,90.44
2022-08-19T01:30:55.503Z,90.53
2022-08-19T01:31:07.960Z,90.53
2022-08-19T01:31:26.546Z,90.59
2022-08-19T01:31:27.846Z,90.73
2022-08-19T01:31:36.735Z,90.73
2022-08-19T01:31:46.865Z,90.73
2022-08-19T01:31:57.014Z,90.69
2022-08-19T01:32:07.161Z,90.79
2022-08-19T01:32:32.048Z,90.79
2022-08-19T01:32:33.315Z,90.89
2022-08-19T01:32:38.783Z,90.89
2022-08-19T01:32:48.941Z,90.89
2022-08-19T01:32:58.935Z,90.89
2022-08-19T01:33:09.075Z,90.89
2022-08-19T01:33:19.212Z,90.89
2022-08-19T01:33:29.357Z,90.89
2022-08-19T01:33:39.503Z,90.89
2022-08-19T01:33:49.633Z,90.89
2022-08-19T01:33:59.754Z,90.89
2022-08-19T01:34:09.863Z,90.89
2022-08-19T01:34:20.023Z,90.89
2022-08-19T01:34:30.163Z,90.89
2022-08-19T01:34:40.315Z,90.89
2022-08-19T01:34:50.423Z,90.89
2022-08-19T01:35:00.552Z,90.89
2022-08-19T01:35:10.683Z,90.89
2022-08-19T01:35:20.824Z,90.89
2022-08-19T01:35:30.954Z,90.89
2022-08-19T01:35:41.074Z,90.79
2022-08-19T01:35:51.214Z,90.89
2022-08-19T01:36:01.471Z,90.89
2022-08-19T01:36:11.405Z,90.89
2022-08-19T01:36:21.405Z,90.89
2022-08-19T01:36:31.544Z,90.89
2022-08-19T01:36:41.662Z,90.99
2022-08-19T01:36:51.674Z,91.09
2022-08-19T01:37:01.793Z,91.09
2022-08-19T01:37:11.943Z,91.19
2022-08-19T01:37:24.973Z,91.29
2022-08-19T01:37:32.074Z,91.29
2022-08-19T01:37:42.224Z,91.29
2022-08-19T01:37:52.377Z,91.29
2022-08-19T01:38:02.504Z,91.29
2022-08-19T01:38:12.652Z,91.39
2022-08-19T01:38:22.748Z,91.39
2022-08-19T01:38:32.883Z,91.39
2022-08-19T01:38:43.983Z,91.39
2022-08-19T01:38:53.041Z,91.49
2022-08-19T01:39:03.235Z,91.49
2022-08-19T01:39:13.204Z,91.49
2022-08-19T01:39:23.383Z,91.49
2022-08-19T01:39:33.564Z,91.59
2022-08-19T01:39:43.595Z,91.49
2022-08-19T01:39:53.576Z,91.39
2022-08-19T01:40:08.858Z,91.39
2022-08-19T01:40:13.983Z,91.49
2022-08-19T01:40:23.973Z,91.59
2022-08-19T01:40:34.114Z,91.59
2022-08-19T01:40:44.274Z,91.69
2022-08-19T01:40:54.442Z,91.69
2022-08-19T01:41:04.595Z,91.79
2022-08-19T01:41:15.588Z,91.99
2022-08-19T01:41:25.722Z,91.99
2022-08-19T01:41:35.845Z,92.09
2022-08-19T01:41:45.983Z,92.09
2022-08-19T01:41:56.158Z,91.99
2022-08-19T01:42:06.292Z,92.09
2022-08-19T01:42:16.434Z,92.09
2022-08-19T01:42:30.112Z,92.09
2022-08-19T01:42:36.724Z,92.09
2022-08-19T01:42:46.986Z,92.19
2022-08-19T01:42:57.007Z,92.19
2022-08-19T01:43:11.613Z,92.29
2022-08-19T01:43:21.734Z,92.29
2022-08-19T01:43:31.894Z,92.39
2022-08-19T01:44:10.066Z,92.59
2022-08-19T01:44:17.342Z,92.49
2022-08-19T01:44:17.539Z,92.69
2022-08-19T01:44:19.163Z,92.79
2022-08-19T01:44:25.183Z,92.79
2022-08-19T01:44:35.344Z,92.79
2022-08-19T01:44:45.475Z,92.79
2022-08-19T01:44:55.595Z,92.93
2022-08-19T01:45:05.743Z,92.93
2022-08-19T01:45:15.853Z,92.93
2022-08-19T01:45:25.993Z,92.93
2022-08-19T01:45:35.995Z,92.93
2022-08-19T01:45:46.124Z,92.93
2022-08-19T01:45:56.253Z,92.93
2022-08-19T01:46:06.384Z,92.93
2022-08-19T01:46:16.502Z,92.93
2022-08-19T01:46:26.653Z,93.04
2022-08-19T01:46:36.773Z,93.04
2022-08-19T01:46:46.883Z,93.04
2022-08-19T01:46:57.011Z,93.04
2022-08-19T01:47:07.145Z,92.93
2022-08-19T01:47:17.253Z,92.83
2022-08-19T01:47:27.374Z,92.83
2022-08-19T01:47:37.484Z,92.83
2022-08-19T01:47:51.650Z,92.83
2022-08-19T01:48:02.142Z,92.83
2022-08-19T01:48:08.722Z,92.83
2022-08-19T01:48:18.833Z,92.74
2022-08-19T01:48:28.974Z,92.63
2022-08-19T01:48:39.103Z,92.63
2022-08-19T01:48:49.234Z,92.54
2022-08-19T01:48:59.352Z,92.54
2022-08-19T01:49:09.470Z,92.54
2022-08-19T01:49:19.503Z,92.54
2022-08-19T01:49:29.616Z,92.54
2022-08-19T01:49:39.735Z,92.54
2022-08-19T01:49:49.864Z,92.54
2022-08-19T01:49:59.985Z,92.54
2022-08-19T01:50:10.104Z,92.54
2022-08-19T01:50:20.233Z,92.54
2022-08-19T01:50:30.283Z,92.54
2022-08-19T01:50:40.414Z,92.54
2022-08-19T01:50:50.534Z,92.63
2022-08-19T01:51:00.653Z,92.63
2022-08-19T01:51:10.794Z,92.63
2022-08-19T01:51:20.913Z,92.63
2022-08-19T01:51:30.915Z,92.74
2022-08-19T01:51:41.933Z,92.74
2022-08-19T01:51:52.065Z,92.74
2022-08-19T01:52:02.193Z,92.83
2022-08-19T01:52:12.314Z,92.83
2022-08-19T01:52:22.434Z,92.83
2022-08-19T01:52:32.565Z,92.83
2022-08-19T01:52:42.665Z,92.83
2022-08-19T01:53:06.004Z,92.83
2022-08-19T01:53:06.852Z,92.83
2022-08-19T01:53:13.864Z,92.83
2022-08-19T01:53:24.041Z,92.83
2022-08-19T01:53:35.004Z,92.83
2022-08-19T01:53:45.144Z,92.83
2022-08-19T01:53:55.454Z,92.83
2022-08-19T01:54:05.326Z,92.74
2022-08-19T01:54:27.029Z,92.74
2022-08-19T01:54:27.796Z,92.74
2022-08-19T01:54:36.595Z,92.74
2022-08-19T01:54:46.726Z,92.63
2022-08-19T01:54:56.851Z,92.63
2022-08-19T01:55:06.983Z,92.54
2022-08-19T01:55:17.388Z,92.54
2022-08-19T01:55:27.413Z,92.54
2022-08-19T01:55:41.087Z,92.54
2022-08-19T01:55:47.654Z,92.54
2022-08-19T01:55:57.793Z,92.54
2022-08-19T01:56:07.915Z,92.54
2022-08-19T01:56:18.014Z,92.43
2022-08-19T01:56:28.133Z,92.33
2022-08-19T01:56:38.243Z,92.33
2022-08-19T01:56:48.384Z,92.33
2022-08-19T01:56:58.366Z,92.43
2022-08-19T01:57:08.493Z,92.54
2022-08-19T01:57:18.604Z,92.63
2022-08-19T01:57:28.735Z,92.63
2022-08-19T01:57:38.864Z,92.54
2022-08-19T01:57:49.005Z,92.54
2022-08-19T01:57:59.142Z,92.54
2022-08-19T01:58:09.281Z,92.54
2022-08-19T01:58:19.455Z,92.63
2022-08-19T01:58:29.574Z,92.63
2022-08-19T01:58:39.694Z,92.74
2022-08-19T01:58:49.814Z,92.83
2022-08-19T01:58:59.946Z,92.83
2022-08-19T01:59:10.075Z,92.78
2022-08-19T01:59:20.204Z,92.83
2022-08-19T01:59:30.354Z,92.88
2022-08-19T01:59:40.484Z,92.78
2022-08-19T01:59:50.623Z,92.78
2022-08-19T02:00:00.760Z,92.78
2022-08-19T02:00:10.891Z,92.78
2022-08-19T02:00:21.005Z,92.78
2022-08-19T02:00:31.135Z,92.78
2022-08-19T02:00:41.291Z,92.78
2022-08-19T02:00:51.394Z,92.88
2022-08-19T02:01:01.572Z,92.88
2022-08-19T02:01:11.610Z,92.88
2022-08-19T02:01:21.594Z,92.98
2022-08-19T02:01:31.646Z,92.98
2022-08-19T02:01:41.800Z,92.98
2022-08-19T02:01:51.768Z,92.98
2022-08-19T02:02:01.884Z,92.88
2022-08-19T02:02:12.065Z,92.78
2022-08-19T02:02:22.227Z,92.68
2022-08-19T02:02:32.342Z,92.68
2022-08-19T02:02:44.289Z,92.68
2022-08-19T02:02:52.712Z,92.68
2022-08-19T02:03:02.573Z,92.68
2022-08-19T02:03:12.674Z,92.68
2022-08-19T02:03:22.835Z,92.68
2022-08-19T02:03:32.964Z,92.78
2022-08-19T02:03:43.102Z,92.78
2022-08-19T02:03:53.273Z,92.78
2022-08-19T02:04:03.424Z,92.88
2022-08-19T02:04:13.547Z,92.88
2022-08-19T02:04:23.655Z,92.98
2022-08-19T02:04:33.794Z,93.18
2022-08-19T02:04:43.932Z,93.28
2022-08-19T02:04:54.042Z,93.28
2022-08-19T02:05:04.164Z,93.28
2022-08-19T02:05:14.277Z,93.38
2022-08-19T02:05:24.421Z,93.48
2022-08-19T02:05:34.544Z,93.48
2022-08-19T02:05:44.695Z,93.38
2022-08-19T02:05:54.854Z,93.38
2022-08-19T02:06:04.985Z,93.38
2022-08-19T02:06:15.177Z,93.28
2022-08-19T02:06:26.967Z,93.28
2022-08-19T02:06:35.363Z,93.18
2022-08-19T02:06:45.503Z,93.28
2022-08-19T02:06:55.625Z,93.28
2022-08-19T02:07:05.783Z,93.28
2022-08-19T02:07:15.904Z,93.28
2022-08-19T02:07:26.044Z,93.28
2022-08-19T02:07:36.186Z,93.38
2022-08-19T02:07:46.254Z,93.48
2022-08-19T02:07:56.374Z,93.48
2022-08-19T02:08:06.515Z,93.58
2022-08-19T02:08:16.635Z,93.58
2022-08-19T02:08:26.755Z,93.58
2022-08-19T02:08:36.884Z,93.48
2022-08-19T02:08:47.014Z,93.38
2022-08-19T02:08:57.679Z,93.43
2022-08-19T02:09:07.394Z,93.43
2022-08-19T02:09:17.534Z,93.52
2022-08-19T02:09:27.603Z,93.52
2022-08-19T02:09:37.782Z,93.52
2022-08-19T02:09:47.944Z,93.62
2022-08-19T02:09:58.054Z,93.62
2022-08-19T02:10:08.922Z,93.73
2022-08-19T02:10:18.342Z,93.82
2022-08-19T02:10:28.465Z,93.82
2022-08-19T02:10:38.583Z,93.93
2022-08-19T02:10:48.745Z,93.93
2022-08-19T02:10:58.882Z,94.02